Time;durP1;ratioP1;P1;durP2;ratioP2;P2;SDS_P1;SDS_P2;PMS_P1;PMS_P2;Temp;Humidity;BMP_temperature;BMP_pressure;BME280_temperature;BME280_humidity;BME280_pressure;Samples;Min_cycle;Max_cycle;Signal;HPM_P1;HPM_P2
2022/04/15 00:01:20;;;;;;;22.73;16.08;;;;;;;;;;5008785;28;20040;-77
2022/04/15 00:03:46;;;;;;;24.25;16.95;;;;;;;;;;5008169;28;20567;-77
2022/04/15 00:06:12;;;;;;;21.73;15.65;;;;;;;;;;5006538;28;20033;-76
2022/04/15 00:08:38;;;;;;;20.60;15.63;;;;;;;;;;4998634;28;20040;-77
2022/04/15 00:11:04;;;;;;;23.10;16.08;;;;;;;;;;5002986;28;20033;-77
2022/04/15 00:13:32;;;;;;;23.63;15.63;;;;;;;;;;5002083;28;20030;-77
2022/04/15 00:15:58;;;;;;;23.10;16.98;;;;;;;;;;5007471;28;20034;-77
2022/04/15 00:18:24;;;;;;;22.65;15.63;;;;;;;;;;4995831;28;20477;-77
2022/04/15 00:20:51;;;;;;;25.63;16.88;;;;;;;;;;4995282;28;20064;-77
2022/04/15 00:23:18;;;;;;;25.45;16.77;;;;;;;;;;4992129;28;20030;-76
2022/04/15 00:25:44;;;;;;;25.75;17.20;;;;;;;;;;5001826;28;20049;-76
2022/04/15 00:28:10;;;;;;;26.75;17.00;;;;;;;;;;4997794;28;20069;-77
2022/04/15 00:30:35;;;;;;;22.05;15.82;;;;;;;;;;4997540;28;20034;-77
2022/04/15 00:33:01;;;;;;;24.60;16.67;;;;;;;;;;4992574;28;20038;-77
2022/04/15 00:35:27;;;;;;;21.95;15.48;;;;;;;;;;5003643;28;20036;-77
2022/04/15 00:37:53;;;;;;;22.98;15.77;;;;;;;;;;5014027;28;20026;-77
2022/04/15 00:40:19;;;;;;;21.52;16.10;;;;;;;;;;4993554;28;20054;-77
2022/04/15 00:42:45;;;;;;;22.73;15.25;;;;;;;;;;4999135;28;20030;-77
2022/04/15 00:45:11;;;;;;;22.00;15.48;;;;;;;;;;5003269;28;20026;-77
2022/04/15 00:47:53;;;;;;;18.05;14.15;;;;;;;;;;4990279;28;20038;-77
2022/04/15 00:50:23;;;;;;;18.38;13.82;;;;;;;;;;4998526;28;20140;-77
2022/04/15 00:52:50;;;;;;;17.80;13.80;;;;;;;;;;5008818;28;20030;-77
2022/04/15 00:55:18;;;;;;;17.40;12.25;;;;;;;;;;4993745;28;20273;-76
2022/04/15 00:58:10;;;;;;;17.10;11.20;;;;;;;;;;4997148;28;20042;-77
2022/04/15 01:00:37;;;;;;;18.15;10.88;;;;;;;;;;5001619;28;20124;-77
2022/04/15 01:03:04;;;;;;;15.38;10.48;;;;;;;;;;5006591;28;20057;-77
2022/04/15 01:05:30;;;;;;;14.30;9.95;;;;;;;;;;5000154;28;20439;-77
2022/04/15 01:07:57;;;;;;;13.75;9.32;;;;;;;;;;5003523;28;20030;-77
2022/04/15 01:10:23;;;;;;;13.05;9.10;;;;;;;;;;4999700;28;20506;-77
2022/04/15 01:12:53;;;;;;;16.70;9.02;;;;;;;;;;4998766;28;20112;-76
2022/04/15 01:15:20;;;;;;;13.50;8.38;;;;;;;;;;5002809;28;20033;-77
2022/04/15 01:17:46;;;;;;;14.43;8.00;;;;;;;;;;4997832;28;20036;-78
2022/04/15 01:20:13;;;;;;;13.52;7.90;;;;;;;;;;5000652;28;20022;-77
2022/04/15 01:22:46;;;;;;;13.93;8.50;;;;;;;;;;5007373;28;20072;-77
2022/04/15 01:25:15;;;;;;;13.80;7.97;;;;;;;;;;5005914;28;20105;-77
2022/04/15 01:27:48;;;;;;;11.38;7.70;;;;;;;;;;5003862;28;20053;-77
2022/04/15 01:30:15;;;;;;;9.43;7.18;;;;;;;;;;4998398;28;20033;-77
2022/04/15 01:32:41;;;;;;;11.77;6.75;;;;;;;;;;5000869;28;20219;-77
2022/04/15 01:35:07;;;;;;;9.18;7.30;;;;;;;;;;4999616;28;20029;-77
2022/04/15 01:37:35;;;;;;;12.68;8.10;;;;;;;;;;4997096;28;20089;-77
2022/04/15 01:40:01;;;;;;;12.63;7.60;;;;;;;;;;4995004;28;20109;-77
2022/04/15 01:42:26;;;;;;;14.90;8.02;;;;;;;;;;5007764;28;20109;-77
2022/04/15 01:44:52;;;;;;;11.85;8.20;;;;;;;;;;5002120;28;20109;-77
2022/04/15 01:47:18;;;;;;;14.93;8.13;;;;;;;;;;4998401;28;20038;-77
2022/04/15 01:49:44;;;;;;;11.27;8.07;;;;;;;;;;4993804;28;20033;-77
2022/04/15 01:52:10;;;;;;;16.60;8.75;;;;;;;;;;5006100;28;20046;-77
2022/04/15 01:54:36;;;;;;;11.18;7.53;;;;;;;;;;4996008;28;20030;-77
2022/04/15 01:57:03;;;;;;;12.20;8.07;;;;;;;;;;5003586;28;20083;-76
2022/04/15 01:59:29;;;;;;;11.10;7.78;;;;;;;;;;5002513;28;20156;-77
2022/04/15 02:01:55;;;;;;;15.43;8.13;;;;;;;;;;5006378;28;20105;-77
2022/04/15 02:04:21;;;;;;;12.10;7.40;;;;;;;;;;4998238;28;20193;-77
2022/04/15 02:06:47;;;;;;;11.88;7.38;;;;;;;;;;4995578;28;20417;-77
2022/04/15 02:09:13;;;;;;;12.45;7.68;;;;;;;;;;5005998;28;20496;-77
2022/04/15 02:11:39;;;;;;;15.00;7.68;;;;;;;;;;5002178;28;20034;-77
2022/04/15 02:14:05;;;;;;;14.35;7.70;;;;;;;;;;4993062;28;20440;-77
2022/04/15 02:16:31;;;;;;;11.55;6.65;;;;;;;;;;5001395;28;20057;-77
2022/04/15 02:18:57;;;;;;;12.60;7.60;;;;;;;;;;5000066;28;20109;-77
2022/04/15 02:21:23;;;;;;;13.13;8.32;;;;;;;;;;4999890;28;20401;-77
2022/04/15 02:23:49;;;;;;;13.13;7.82;;;;;;;;;;4997025;28;20027;-76
2022/04/15 02:26:15;;;;;;;13.25;7.47;;;;;;;;;;4999384;28;20251;-77
2022/04/15 02:28:40;;;;;;;11.32;7.53;;;;;;;;;;5005873;28;20393;-77
2022/04/15 02:31:06;;;;;;;14.40;8.35;;;;;;;;;;5000526;28;20026;-77
2022/04/15 02:33:32;;;;;;;11.68;7.60;;;;;;;;;;5017991;28;20038;-77
2022/04/15 02:35:58;;;;;;;13.80;8.30;;;;;;;;;;4999330;28;20118;-77
2022/04/15 02:38:24;;;;;;;15.45;7.78;;;;;;;;;;5007388;28;20098;-77
2022/04/15 02:40:50;;;;;;;18.00;7.88;;;;;;;;;;5016127;28;20492;-77
2022/04/15 02:43:16;;;;;;;11.88;7.97;;;;;;;;;;5014777;28;20088;-76
2022/04/15 02:45:42;;;;;;;14.20;8.48;;;;;;;;;;5007787;28;20488;-76
2022/04/15 02:48:08;;;;;;;14.45;8.13;;;;;;;;;;5000025;28;20041;-77
2022/04/15 02:50:34;;;;;;;15.55;7.78;;;;;;;;;;5001774;28;20109;-76
2022/04/15 02:53:01;;;;;;;16.13;8.38;;;;;;;;;;4998716;28;20034;-77
2022/04/15 02:55:27;;;;;;;12.45;7.97;;;;;;;;;;5006757;28;20125;-77
2022/04/15 02:57:53;;;;;;;11.32;7.47;;;;;;;;;;5004028;28;20125;-77
2022/04/15 03:00:19;;;;;;;14.55;8.13;;;;;;;;;;4999550;28;20038;-77
2022/04/15 03:02:45;;;;;;;15.07;8.45;;;;;;;;;;5002094;28;20072;-77
2022/04/15 03:05:11;;;;;;;12.93;7.72;;;;;;;;;;5007778;28;20021;-77
2022/04/15 03:07:37;;;;;;;9.93;8.23;;;;;;;;;;4996502;28;20030;-77
2022/04/15 03:10:04;;;;;;;11.40;7.55;;;;;;;;;;4994425;28;20062;-77
2022/04/15 03:12:33;;;;;;;18.23;8.30;;;;;;;;;;4999429;28;20049;-77
2022/04/15 03:14:59;;;;;;;13.85;7.72;;;;;;;;;;5005889;28;20112;-77
2022/04/15 03:17:25;;;;;;;14.30;7.82;;;;;;;;;;5009115;28;20160;-77
2022/04/15 03:19:52;;;;;;;11.25;7.88;;;;;;;;;;5008553;28;20497;-77
2022/04/15 03:22:18;;;;;;;11.20;7.13;;;;;;;;;;5008707;28;20689;-77
2022/04/15 03:24:47;;;;;;;9.73;7.30;;;;;;;;;;5002242;28;20033;-78
2022/04/15 03:27:16;;;;;;;14.35;7.75;;;;;;;;;;5014544;28;20117;-78
2022/04/15 03:29:44;;;;;;;12.07;7.93;;;;;;;;;;4998434;28;20125;-78
2022/04/15 03:32:11;;;;;;;14.68;9.20;;;;;;;;;;4998995;28;20033;-77
2022/04/15 03:34:37;;;;;;;11.23;7.55;;;;;;;;;;4991578;28;20263;-77
2022/04/15 03:37:06;;;;;;;10.50;7.90;;;;;;;;;;4997724;28;20465;-77
2022/04/15 03:39:32;;;;;;;11.48;7.68;;;;;;;;;;4993864;28;20536;-77
2022/04/15 03:41:58;;;;;;;10.23;8.00;;;;;;;;;;4998993;28;20026;-77
2022/04/15 03:44:24;;;;;;;14.95;8.30;;;;;;;;;;5003937;28;20018;-77
2022/04/15 03:46:50;;;;;;;10.75;7.18;;;;;;;;;;5000022;28;20133;-77
2022/04/15 03:49:15;;;;;;;13.23;8.63;;;;;;;;;;4997149;28;20449;-77
2022/04/15 03:51:41;;;;;;;14.50;9.00;;;;;;;;;;5005185;28;20030;-77
2022/04/15 03:54:07;;;;;;;12.50;8.27;;;;;;;;;;4995755;28;20469;-78
2022/04/15 03:56:34;;;;;;;13.05;8.93;;;;;;;;;;4994035;28;20037;-76
2022/04/15 03:59:00;;;;;;;13.07;8.23;;;;;;;;;;4995969;28;20022;-77
2022/04/15 04:01:26;;;;;;;15.15;7.90;;;;;;;;;;4996395;28;20032;-76
2022/04/15 04:03:52;;;;;;;14.13;8.93;;;;;;;;;;4992505;28;20030;-76
2022/04/15 04:06:18;;;;;;;13.68;8.63;;;;;;;;;;4998673;28;20520;-76
2022/04/15 04:08:49;;;;;;;15.35;10.07;;;;;;;;;;4995279;28;20030;-77
2022/04/15 04:11:18;;;;;;;15.35;8.68;;;;;;;;;;4999176;28;20045;-77
2022/04/15 04:13:44;;;;;;;14.90;8.75;;;;;;;;;;5000954;28;20508;-77
2022/04/15 04:16:12;;;;;;;15.77;9.27;;;;;;;;;;4997067;28;20029;-77
2022/04/15 04:18:38;;;;;;;14.15;8.88;;;;;;;;;;4998875;28;20036;-77
2022/04/15 04:21:04;;;;;;;13.93;9.32;;;;;;;;;;4996919;28;20050;-77
2022/04/15 04:23:30;;;;;;;11.23;8.90;;;;;;;;;;5008273;28;20052;-76
2022/04/15 04:25:56;;;;;;;14.98;9.13;;;;;;;;;;5000246;28;20041;-77
2022/04/15 04:28:22;;;;;;;17.48;9.18;;;;;;;;;;4993984;28;20034;-76
2022/04/15 04:30:48;;;;;;;16.05;9.40;;;;;;;;;;5014144;28;20037;-77
2022/04/15 04:33:14;;;;;;;15.60;9.10;;;;;;;;;;5011503;28;20037;-76
2022/04/15 04:35:39;;;;;;;13.85;8.70;;;;;;;;;;4997842;28;20037;-77
2022/04/15 04:38:06;;;;;;;13.43;8.60;;;;;;;;;;5003145;28;20481;-77
2022/04/15 04:40:35;;;;;;;17.02;9.15;;;;;;;;;;4999628;28;20062;-77
2022/04/15 04:43:02;;;;;;;12.52;8.95;;;;;;;;;;5000627;28;20377;-77
2022/04/15 04:45:29;;;;;;;16.70;9.38;;;;;;;;;;4995035;28;20033;-77
2022/04/15 04:47:56;;;;;;;13.95;9.45;;;;;;;;;;4990218;28;20121;-78
2022/04/15 04:50:22;;;;;;;14.15;9.13;;;;;;;;;;4998192;28;20026;-77
2022/04/15 04:52:48;;;;;;;10.45;8.65;;;;;;;;;;5009790;28;20026;-77
2022/04/15 04:55:15;;;;;;;11.15;8.88;;;;;;;;;;5006871;28;20030;-77
2022/04/15 04:57:44;;;;;;;15.82;9.20;;;;;;;;;;4993451;28;20090;-78
2022/04/15 05:00:11;;;;;;;13.88;9.10;;;;;;;;;;4997264;28;20080;-76
2022/04/15 05:02:37;;;;;;;14.27;9.13;;;;;;;;;;4996705;28;20101;-76
2022/04/15 05:05:04;;;;;;;15.23;9.23;;;;;;;;;;5002667;28;20034;-76
2022/04/15 05:07:30;;;;;;;13.20;9.05;;;;;;;;;;5001975;28;20026;-76
2022/04/15 05:09:56;;;;;;;11.45;9.25;;;;;;;;;;5005052;28;20129;-76
2022/04/15 05:12:22;;;;;;;13.90;8.98;;;;;;;;;;4998107;28;20076;-76
2022/04/15 05:14:48;;;;;;;14.05;9.13;;;;;;;;;;5001958;28;20029;-76
2022/04/15 05:17:14;;;;;;;15.27;9.07;;;;;;;;;;4989786;28;20066;-76
2022/04/15 05:19:40;;;;;;;12.88;9.05;;;;;;;;;;4995523;28;20104;-76
2022/04/15 05:22:06;;;;;;;11.27;8.80;;;;;;;;;;5003722;28;20472;-76
2022/04/15 05:24:32;;;;;;;14.85;8.48;;;;;;;;;;5001834;28;20018;-77
2022/04/15 05:26:58;;;;;;;12.88;8.85;;;;;;;;;;5000214;28;20030;-76
2022/04/15 05:29:24;;;;;;;11.02;8.75;;;;;;;;;;5011673;28;20022;-76
2022/04/15 05:31:50;;;;;;;13.88;8.30;;;;;;;;;;5003261;28;20041;-76
2022/04/15 05:34:16;;;;;;;23.58;10.18;;;;;;;;;;4999163;28;20029;-76
2022/04/15 05:36:42;;;;;;;12.05;8.60;;;;;;;;;;5009264;28;20080;-75
2022/04/15 05:39:08;;;;;;;13.23;8.75;;;;;;;;;;5007331;28;20029;-75
2022/04/15 05:41:34;;;;;;;13.13;8.73;;;;;;;;;;5012440;28;20024;-76
2022/04/15 05:44:03;;;;;;;11.93;8.77;;;;;;;;;;5002404;28;20401;-76
2022/04/15 05:46:29;;;;;;;13.80;8.88;;;;;;;;;;5007544;28;20497;-76
2022/04/15 05:48:55;;;;;;;13.40;8.50;;;;;;;;;;5008405;28;20061;-76
2022/04/15 05:51:21;;;;;;;14.02;8.35;;;;;;;;;;5004926;28;20112;-76
2022/04/15 05:53:47;;;;;;;11.18;7.45;;;;;;;;;;5007140;28;20045;-76
2022/04/15 05:56:13;;;;;;;14.07;7.93;;;;;;;;;;5009150;28;20034;-76
2022/04/15 05:58:40;;;;;;;10.80;7.47;;;;;;;;;;5010842;28;20033;-76
2022/04/15 06:01:09;;;;;;;12.82;7.63;;;;;;;;;;5009007;28;20014;-76
2022/04/15 06:03:35;;;;;;;11.63;7.50;;;;;;;;;;5010922;28;20022;-77
2022/04/15 06:06:01;;;;;;;10.68;7.32;;;;;;;;;;4995386;28;20084;-76
2022/04/15 06:08:27;;;;;;;13.32;8.38;;;;;;;;;;5002514;28;20029;-77
2022/04/15 06:10:53;;;;;;;9.45;7.45;;;;;;;;;;5004182;28;20034;-76
2022/04/15 06:13:21;;;;;;;11.02;7.70;;;;;;;;;;5008787;28;20037;-76
2022/04/15 06:15:55;;;;;;;13.32;7.85;;;;;;;;;;5004808;28;20026;-76
2022/04/15 06:18:21;;;;;;;12.77;8.23;;;;;;;;;;5000351;28;20025;-76
2022/04/15 06:20:47;;;;;;;15.95;7.80;;;;;;;;;;5003024;28;20524;-76
2022/04/15 06:23:14;;;;;;;11.63;7.78;;;;;;;;;;5004504;28;20018;-76
2022/04/15 06:25:39;;;;;;;14.25;8.18;;;;;;;;;;5007448;28;20033;-76
2022/04/15 06:28:05;;;;;;;12.15;7.50;;;;;;;;;;5001932;28;20022;-76
2022/04/15 06:30:31;;;;;;;13.15;7.47;;;;;;;;;;4998699;28;20472;-76
2022/04/15 06:32:57;;;;;;;14.48;9.00;;;;;;;;;;4995557;28;20058;-76
2022/04/15 06:35:23;;;;;;;12.88;8.18;;;;;;;;;;5008518;28;20243;-76
2022/04/15 06:37:49;;;;;;;9.52;7.47;;;;;;;;;;5009197;28;20514;-76
2022/04/15 06:40:15;;;;;;;12.20;8.10;;;;;;;;;;5005002;28;20018;-76
2022/04/15 06:42:41;;;;;;;13.63;8.20;;;;;;;;;;5009856;28;20095;-76
2022/04/15 06:45:07;;;;;;;13.75;8.07;;;;;;;;;;5003218;28;20026;-76
2022/04/15 06:47:33;;;;;;;11.23;7.47;;;;;;;;;;5003491;28;20033;-76
2022/04/15 06:49:59;;;;;;;9.85;7.43;;;;;;;;;;5011306;28;20444;-77
2022/04/15 06:52:25;;;;;;;11.32;7.80;;;;;;;;;;5006326;28;20056;-76
2022/04/15 06:54:51;;;;;;;11.07;7.90;;;;;;;;;;5001020;28;20065;-76
2022/04/15 06:57:17;;;;;;;11.85;7.50;;;;;;;;;;5000272;28;20129;-76
2022/04/15 06:59:42;;;;;;;14.32;7.45;;;;;;;;;;5006518;28;20033;-77
2022/04/15 07:02:09;;;;;;;14.07;7.32;;;;;;;;;;5002772;28;20031;-76
2022/04/15 07:04:35;;;;;;;12.63;7.43;;;;;;;;;;5010461;28;20037;-75
2022/04/15 07:07:01;;;;;;;9.95;7.13;;;;;;;;;;5009719;28;20034;-76
2022/04/15 07:09:27;;;;;;;11.70;7.53;;;;;;;;;;5006662;28;20054;-76
2022/04/15 07:11:53;;;;;;;12.45;7.65;;;;;;;;;;5006058;28;20026;-76
2022/04/15 07:14:19;;;;;;;12.18;7.30;;;;;;;;;;5007771;28;20077;-76
2022/04/15 07:16:45;;;;;;;12.23;7.22;;;;;;;;;;5004981;28;20113;-76
2022/04/15 07:19:11;;;;;;;12.25;7.90;;;;;;;;;;5010039;28;20109;-76
2022/04/15 07:21:38;;;;;;;13.82;7.32;;;;;;;;;;4999254;28;20026;-76
2022/04/15 07:24:04;;;;;;;10.85;7.03;;;;;;;;;;5005983;28;20026;-76
2022/04/15 07:26:31;;;;;;;11.90;7.30;;;;;;;;;;5002057;28;20113;-76
2022/04/15 07:28:57;;;;;;;12.32;7.90;;;;;;;;;;5010823;28;20037;-76
2022/04/15 07:31:23;;;;;;;11.75;6.97;;;;;;;;;;5002977;28;20026;-76
2022/04/15 07:33:49;;;;;;;11.88;7.55;;;;;;;;;;5007666;28;20064;-76
2022/04/15 07:38:59;;;;;;;11.48;7.35;;;;;;;;;;5012526;28;20030;-76
2022/04/15 07:41:25;;;;;;;12.52;7.53;;;;;;;;;;5009116;28;20021;-75
2022/04/15 07:43:51;;;;;;;15.68;7.72;;;;;;;;;;5005147;28;20033;-76
2022/04/15 07:46:17;;;;;;;13.23;7.53;;;;;;;;;;5006534;28;20440;-76
2022/04/15 07:48:43;;;;;;;15.75;7.90;;;;;;;;;;5007138;28;20030;-76
2022/04/15 07:51:09;;;;;;;10.38;7.80;;;;;;;;;;5003946;28;20388;-75
2022/04/15 07:53:35;;;;;;;14.65;7.75;;;;;;;;;;5004452;28;20104;-76
2022/04/15 07:56:01;;;;;;;12.18;7.57;;;;;;;;;;5003896;28;20101;-76
2022/04/15 07:58:27;;;;;;;11.43;7.45;;;;;;;;;;4996401;28;20030;-75
2022/04/15 08:00:53;;;;;;;11.63;7.75;;;;;;;;;;4997811;28;20098;-76
2022/04/15 08:03:20;;;;;;;9.38;7.00;;;;;;;;;;4999741;28;20022;-76
2022/04/15 08:05:47;;;;;;;10.27;7.15;;;;;;;;;;5001642;28;20401;-76
2022/04/15 08:08:13;;;;;;;13.80;7.40;;;;;;;;;;5003957;28;20034;-76
2022/04/15 08:10:39;;;;;;;12.50;6.95;;;;;;;;;;5004772;28;20052;-76
2022/04/15 08:13:05;;;;;;;14.43;7.97;;;;;;;;;;5006589;28;20041;-76
2022/04/15 08:15:31;;;;;;;12.95;7.90;;;;;;;;;;5008795;28;20576;-77
2022/04/15 08:17:57;;;;;;;11.32;7.20;;;;;;;;;;5007755;28;20552;-77
2022/04/15 08:20:23;;;;;;;15.30;7.55;;;;;;;;;;5011186;28;20032;-76
2022/04/15 08:22:49;;;;;;;13.80;8.95;;;;;;;;;;5001706;28;20026;-76
2022/04/15 08:25:15;;;;;;;12.32;8.23;;;;;;;;;;5009620;28;20465;-76
2022/04/15 08:27:41;;;;;;;15.13;8.20;;;;;;;;;;5008228;28;20096;-76
2022/04/15 08:30:07;;;;;;;13.10;7.35;;;;;;;;;;5004298;28;20108;-76
2022/04/15 08:32:33;;;;;;;13.57;7.80;;;;;;;;;;5007671;28;20296;-76
2022/04/15 08:35:03;;;;;;;11.10;7.53;;;;;;;;;;5007813;28;20034;-76
2022/04/15 08:37:29;;;;;;;10.85;7.97;;;;;;;;;;5015567;28;20022;-76
2022/04/15 08:39:55;;;;;;;12.90;7.95;;;;;;;;;;5008589;28;20033;-76
2022/04/15 08:42:21;;;;;;;12.27;7.57;;;;;;;;;;5005850;28;20025;-76
2022/04/15 08:44:51;;;;;;;11.82;7.20;;;;;;;;;;5002587;28;20100;-76
2022/04/15 08:47:17;;;;;;;14.00;7.50;;;;;;;;;;5012258;28;20033;-76
2022/04/15 08:49:44;;;;;;;12.98;7.35;;;;;;;;;;5000061;28;20133;-75
2022/04/15 08:52:11;;;;;;;13.25;7.60;;;;;;;;;;5006393;28;20034;-76
2022/04/15 08:54:37;;;;;;;10.52;7.32;;;;;;;;;;5000468;28;20485;-76
2022/04/15 08:57:03;;;;;;;10.32;7.43;;;;;;;;;;5003888;28;20029;-75
2022/04/15 08:59:29;;;;;;;12.18;7.65;;;;;;;;;;5004817;28;20018;-76
2022/04/15 09:01:55;;;;;;;13.77;7.57;;;;;;;;;;5004225;28;20029;-76
2022/04/15 09:04:21;;;;;;;12.27;7.10;;;;;;;;;;5006856;28;20027;-76
2022/04/15 09:06:55;;;;;;;11.38;7.03;;;;;;;;;;5007027;28;20040;-75
2022/04/15 09:09:24;;;;;;;11.70;7.07;;;;;;;;;;4999121;28;20064;-76
2022/04/15 09:11:50;;;;;;;11.00;7.88;;;;;;;;;;5010380;28;20255;-76
2022/04/15 09:14:16;;;;;;;15.27;6.72;;;;;;;;;;5002542;28;20425;-76
2022/04/15 09:16:42;;;;;;;11.38;6.53;;;;;;;;;;5006292;28;20056;-76
2022/04/15 09:19:09;;;;;;;10.40;6.78;;;;;;;;;;5015698;28;20625;-76
2022/04/15 09:21:36;;;;;;;13.25;7.10;;;;;;;;;;5012057;28;20026;-76
2022/04/15 09:24:02;;;;;;;13.18;7.55;;;;;;;;;;5001975;28;20046;-76
2022/04/15 09:26:28;;;;;;;12.75;8.18;;;;;;;;;;5016192;28;20400;-76
2022/04/15 09:28:54;;;;;;;13.10;7.82;;;;;;;;;;5010462;28;20116;-76
2022/04/15 09:31:21;;;;;;;14.20;7.75;;;;;;;;;;5006313;28;20084;-76
2022/04/15 09:33:54;;;;;;;11.10;6.35;;;;;;;;;;5010509;28;20038;-76
2022/04/15 09:36:24;;;;;;;11.25;7.70;;;;;;;;;;5010308;28;20026;-76
2022/04/15 09:38:50;;;;;;;12.98;8.05;;;;;;;;;;5013696;28;20125;-76
2022/04/15 09:41:23;;;;;;;12.32;8.02;;;;;;;;;;5007579;28;20018;-76
2022/04/15 09:43:52;;;;;;;16.05;7.65;;;;;;;;;;4998962;28;20030;-76
2022/04/15 09:46:19;;;;;;;12.57;7.47;;;;;;;;;;5003456;28;20624;-76
2022/04/15 09:48:58;;;;;;;10.52;7.15;;;;;;;;;;5017105;28;20033;-76
2022/04/15 09:51:24;;;;;;;15.32;8.05;;;;;;;;;;5015605;28;20049;-76
2022/04/15 09:53:55;;;;;;;13.75;8.43;;;;;;;;;;5012112;28;20025;-76
2022/04/15 09:56:22;;;;;;;13.30;7.93;;;;;;;;;;5006501;28;20030;-76
2022/04/15 09:58:50;;;;;;;10.07;7.43;;;;;;;;;;4998456;28;20058;-76
2022/04/15 10:01:16;;;;;;;9.82;7.40;;;;;;;;;;5005118;28;20030;-76
2022/04/15 10:03:45;;;;;;;8.70;6.80;;;;;;;;;;5005679;28;20089;-76
2022/04/15 10:06:11;;;;;;;9.15;6.70;;;;;;;;;;5002813;28;20087;-76
2022/04/15 10:08:39;;;;;;;9.80;6.88;;;;;;;;;;5009202;28;20033;-76
2022/04/15 10:11:08;;;;;;;12.80;7.55;;;;;;;;;;5001210;28;20489;-76
2022/04/15 10:13:35;;;;;;;7.93;6.28;;;;;;;;;;5008966;28;20199;-76
2022/04/15 10:16:02;;;;;;;8.52;6.20;;;;;;;;;;5008288;28;20117;-76
2022/04/15 10:18:29;;;;;;;10.27;6.57;;;;;;;;;;5024632;28;20456;-76
2022/04/15 10:20:55;;;;;;;7.18;5.70;;;;;;;;;;5005426;28;20228;-77
2022/04/15 10:23:22;;;;;;;8.48;6.10;;;;;;;;;;5008594;28;20431;-77
2022/04/15 10:25:49;;;;;;;10.05;6.07;;;;;;;;;;5011405;28;20087;-77
2022/04/15 10:28:19;;;;;;;7.15;5.68;;;;;;;;;;5010029;28;20041;-77
2022/04/15 10:30:51;;;;;;;7.95;5.72;;;;;;;;;;5009797;28;20034;-77
2022/04/15 10:33:29;;;;;;;7.55;5.80;;;;;;;;;;5010361;28;20041;-77
2022/04/15 10:35:59;;;;;;;7.63;5.75;;;;;;;;;;5012539;28;20030;-76
2022/04/15 10:38:25;;;;;;;7.60;5.32;;;;;;;;;;5010578;28;20473;-76
2022/04/15 10:40:51;;;;;;;5.30;4.60;;;;;;;;;;5010688;28;20018;-77
2022/04/15 10:43:20;;;;;;;6.78;4.30;;;;;;;;;;5011966;28;20025;-76
2022/04/15 10:45:46;;;;;;;6.88;4.75;;;;;;;;;;5010255;28;20499;-76
2022/04/15 10:48:12;;;;;;;6.07;4.80;;;;;;;;;;5010516;28;20117;-76
2022/04/15 10:50:39;;;;;;;4.85;4.30;;;;;;;;;;5010590;28;20076;-77
2022/04/15 10:53:23;;;;;;;6.00;3.85;;;;;;;;;;5010643;28;20037;-76
2022/04/15 10:55:52;;;;;;;4.35;3.22;;;;;;;;;;5005168;28;20120;-77
2022/04/15 10:58:18;;;;;;;4.90;3.80;;;;;;;;;;5009898;28;20033;-76
2022/04/15 11:03:32;;;;;;;3.65;2.90;;;;;;;;;;5010622;28;20037;-76
2022/04/15 11:05:59;;;;;;;5.18;2.70;;;;;;;;;;5010308;28;20417;-76
2022/04/15 11:08:27;;;;;;;3.90;3.10;;;;;;;;;;5010060;28;20030;-76
2022/04/15 11:10:55;;;;;;;4.65;3.28;;;;;;;;;;5015128;28;20104;-77
2022/04/15 11:13:27;;;;;;;3.28;2.35;;;;;;;;;;5012593;28;20037;-76
2022/04/15 11:16:01;;;;;;;3.53;2.83;;;;;;;;;;5007835;28;20022;-76
2022/04/15 11:18:50;;;;;;;2.97;2.15;;;;;;;;;;5016651;28;20029;-76
2022/04/15 11:21:19;;;;;;;3.05;2.50;;;;;;;;;;5021683;28;20025;-77
2022/04/15 11:23:55;;;;;;;2.72;2.40;;;;;;;;;;5002970;28;20026;-76
2022/04/15 11:26:25;;;;;;;4.10;2.50;;;;;;;;;;5000235;28;20061;-76
2022/04/15 11:28:52;;;;;;;2.53;1.90;;;;;;;;;;5016351;28;20030;-76
2022/04/15 11:31:20;;;;;;;2.22;2.03;;;;;;;;;;5013940;28;20088;-76
2022/04/15 11:33:46;;;;;;;2.45;2.25;;;;;;;;;;5001649;28;20021;-76
2022/04/15 11:36:12;;;;;;;2.97;2.35;;;;;;;;;;5010223;28;20030;-76
2022/04/15 11:38:39;;;;;;;2.90;2.42;;;;;;;;;;5004617;28;20441;-76
2022/04/15 11:41:05;;;;;;;3.00;2.25;;;;;;;;;;5006278;28;20022;-76
2022/04/15 11:43:31;;;;;;;3.33;2.28;;;;;;;;;;5006485;28;20124;-77
2022/04/15 11:45:57;;;;;;;2.88;2.28;;;;;;;;;;5001084;28;20390;-76
2022/04/15 11:48:23;;;;;;;3.55;2.13;;;;;;;;;;5007553;28;20033;-76
2022/04/15 11:50:51;;;;;;;4.40;2.30;;;;;;;;;;5001818;28;20331;-76
2022/04/15 11:53:18;;;;;;;3.10;2.10;;;;;;;;;;5010470;28;20057;-76
2022/04/15 11:55:58;;;;;;;2.40;2.20;;;;;;;;;;5009680;28;20083;-77
2022/04/15 11:58:25;;;;;;;2.97;2.17;;;;;;;;;;5005814;28;20025;-76
2022/04/15 12:00:57;;;;;;;4.45;2.40;;;;;;;;;;5010050;28;20033;-76
2022/04/15 12:03:24;;;;;;;2.97;2.40;;;;;;;;;;5008572;28;20057;-77
2022/04/15 12:05:51;;;;;;;3.47;2.47;;;;;;;;;;5008957;28;20033;-76
2022/04/15 12:08:18;;;;;;;3.10;2.42;;;;;;;;;;5012217;28;20079;-76
2022/04/15 12:10:46;;;;;;;4.45;2.83;;;;;;;;;;5010183;28;20424;-75
2022/04/15 12:13:12;;;;;;;2.95;2.50;;;;;;;;;;5011938;28;20021;-77
2022/04/15 12:15:38;;;;;;;3.15;2.38;;;;;;;;;;5008907;28;20022;-77
2022/04/15 12:18:05;;;;;;;4.18;2.70;;;;;;;;;;5008982;28;20112;-77
2022/04/15 12:20:32;;;;;;;4.85;2.47;;;;;;;;;;5007720;28;20022;-78
2022/04/15 12:22:59;;;;;;;4.93;3.00;;;;;;;;;;5007931;28;20091;-77
2022/04/15 12:25:25;;;;;;;5.00;3.22;;;;;;;;;;5007166;28;20109;-76
2022/04/15 12:27:53;;;;;;;4.70;3.25;;;;;;;;;;5005742;28;20207;-76
2022/04/15 12:30:39;;;;;;;3.80;2.20;;;;;;;;;;5010221;28;20488;-76
2022/04/15 12:33:06;;;;;;;3.25;2.10;;;;;;;;;;5008023;28;20030;-76
2022/04/15 12:35:32;;;;;;;4.25;2.53;;;;;;;;;;5007331;28;20500;-76
2022/04/15 12:38:00;;;;;;;2.92;2.38;;;;;;;;;;5008304;28;20068;-76
2022/04/15 12:40:29;;;;;;;2.08;1.80;;;;;;;;;;5014830;28;20026;-77
2022/04/15 12:42:55;;;;;;;2.25;1.90;;;;;;;;;;5015166;28;20049;-77
2022/04/15 12:45:22;;;;;;;3.20;2.40;;;;;;;;;;4993491;28;20022;-77
2022/04/15 12:47:59;;;;;;;2.88;2.10;;;;;;;;;;5008756;28;20073;-76
2022/04/15 12:50:26;;;;;;;2.38;2.17;;;;;;;;;;4996883;28;20030;-76
2022/04/15 12:52:53;;;;;;;3.13;2.53;;;;;;;;;;4996357;28;20081;-76
2022/04/15 12:55:26;;;;;;;2.22;2.03;;;;;;;;;;4993783;28;20026;-77
2022/04/15 12:57:52;;;;;;;2.28;2.08;;;;;;;;;;5000617;28;20388;-77
2022/04/15 13:00:18;;;;;;;3.13;2.50;;;;;;;;;;5009082;28;20038;-76
2022/04/15 13:02:44;;;;;;;2.67;2.10;;;;;;;;;;5001556;28;20029;-77
2022/04/15 13:05:10;;;;;;;3.05;2.28;;;;;;;;;;5016451;28;20428;-77
2022/04/15 13:07:37;;;;;;;2.45;2.00;;;;;;;;;;5014114;28;20096;-76
2022/04/15 13:10:04;;;;;;;2.55;2.15;;;;;;;;;;5008582;28;20046;-75
2022/04/15 13:12:30;;;;;;;3.30;2.05;;;;;;;;;;5016600;28;20033;-76
2022/04/15 13:14:58;;;;;;;3.28;1.90;;;;;;;;;;5015349;28;20115;-77
2022/04/15 13:17:24;;;;;;;3.70;2.20;;;;;;;;;;5015382;28;20064;-77
2022/04/15 13:19:50;;;;;;;3.22;2.30;;;;;;;;;;5007971;28;20061;-78
2022/04/15 13:22:17;;;;;;;1.73;1.60;;;;;;;;;;5008087;28;20120;-77
2022/04/15 13:24:43;;;;;;;2.53;1.77;;;;;;;;;;5008844;28;20026;-77
2022/04/15 13:27:10;;;;;;;2.00;1.50;;;;;;;;;;5014342;28;20083;-77
2022/04/15 13:29:36;;;;;;;1.63;1.50;;;;;;;;;;5010127;28;20021;-77
2022/04/15 13:32:03;;;;;;;1.65;1.50;;;;;;;;;;5007435;28;20134;-75
2022/04/15 13:34:35;;;;;;;2.58;1.90;;;;;;;;;;5007580;28;20038;-75
2022/04/15 13:37:02;;;;;;;2.42;2.10;;;;;;;;;;5006278;28;20025;-74
2022/04/15 13:39:28;;;;;;;3.45;2.00;;;;;;;;;;5004371;28;20032;-75
2022/04/15 13:41:54;;;;;;;2.33;2.00;;;;;;;;;;5010073;28;20096;-74
2022/04/15 13:44:20;;;;;;;3.05;2.50;;;;;;;;;;4999289;28;20029;-74
2022/04/15 13:46:46;;;;;;;2.72;2.47;;;;;;;;;;5004934;28;20033;-75
2022/04/15 13:49:12;;;;;;;3.30;2.60;;;;;;;;;;5005684;28;20038;-75
2022/04/15 13:51:38;;;;;;;5.40;3.33;;;;;;;;;;5008071;28;20112;-75
2022/04/15 13:56:49;;;;;;;5.47;3.40;;;;;;;;;;5011546;28;20040;-75
2022/04/15 13:59:15;;;;;;;7.00;4.30;;;;;;;;;;5013420;28;20018;-75
2022/04/15 14:01:43;;;;;;;8.90;5.10;;;;;;;;;;5010307;28;20108;-74
2022/04/15 14:04:10;;;;;;;8.82;5.80;;;;;;;;;;5011289;28;20101;-74
2022/04/15 14:06:40;;;;;;;10.20;6.30;;;;;;;;;;5007500;28;20092;-75
2022/04/15 14:09:06;;;;;;;11.38;6.93;;;;;;;;;;5015916;28;20052;-75
2022/04/15 14:11:35;;;;;;;11.48;7.13;;;;;;;;;;5018744;28;20033;-75
2022/04/15 14:14:02;;;;;;;10.68;6.85;;;;;;;;;;5014480;28;20401;-75
2022/04/15 14:16:28;;;;;;;10.73;7.30;;;;;;;;;;5016259;28;20053;-78
2022/04/15 14:18:54;;;;;;;11.68;7.20;;;;;;;;;;5009831;28;20018;-81
2022/04/15 14:21:20;;;;;;;10.52;6.35;;;;;;;;;;5012972;28;20480;-77
2022/04/15 14:23:46;;;;;;;9.82;6.47;;;;;;;;;;5002436;28;20057;-76
2022/04/15 14:26:11;;;;;;;13.43;7.63;;;;;;;;;;5013035;28;20085;-75
2022/04/15 14:28:38;;;;;;;13.98;7.40;;;;;;;;;;5019215;28;20121;-75
2022/04/15 14:31:04;;;;;;;14.80;8.23;;;;;;;;;;5011160;28;20030;-75
2022/04/15 14:33:34;;;;;;;14.85;9.00;;;;;;;;;;5001740;28;20026;-76
2022/04/15 14:36:00;;;;;;;15.63;9.30;;;;;;;;;;5017538;28;20030;-75
2022/04/15 14:38:27;;;;;;;15.85;9.35;;;;;;;;;;5006861;28;20125;-75
2022/04/15 14:40:53;;;;;;;15.50;9.55;;;;;;;;;;5013793;28;20103;-74